Time;durP1;ratioP1;P1;durP2;ratioP2;P2;SDS_P1;SDS_P2;PMS_P1;PMS_P2;Temp;Humidity;BMP_temperature;BMP_pressure;BME280_temperature;BME280_humidity;BME280_pressure;Samples;Min_cycle;Max_cycle;Signal;HPM_P1;HPM_P2
2022/02/01 00:00:41;;;;;;;14.23;2.53;;;6.10;97.20;;;;;;5025960;28;20111;-54
2022/02/01 00:03:09;;;;;;;13.75;2.90;;;6.10;97.10;;;;;;5040740;28;20049;-55
2022/02/01 00:05:53;;;;;;;13.38;2.97;;;6.10;97.20;;;;;;5034159;28;20045;-57
2022/02/01 00:09:10;;;;;;;20.60;4.00;;;6.20;96.90;;;;;;5032623;28;20057;-56
2022/02/01 00:11:30;;;;;;;15.25;2.90;;;6.10;96.90;;;;;;5027302;28;20125;-54
2022/02/01 00:14:23;;;;;;;11.90;2.63;;;6.20;97.40;;;;;;5034359;28;20045;-56
2022/02/01 00:20:08;;;;;;;10.65;2.08;;;6.20;97.10;;;;;;5031200;28;20056;-56
2022/02/01 00:33:50;;;;;;;16.25;2.58;;;6.40;97.20;;;;;;5035264;28;20049;-54
2022/02/01 00:36:27;;;;;;;7.45;2.25;;;6.30;97.40;;;;;;5045202;28;20094;-55
2022/02/01 00:39:07;;;;;;;9.45;2.50;;;6.30;97.00;;;;;;5046191;28;20044;-54
2022/02/01 00:41:39;;;;;;;9.82;2.03;;;6.30;97.30;;;;;;5039594;28;20448;-56
2022/02/01 00:44:06;;;;;;;8.48;2.22;;;6.40;97.50;;;;;;5021130;28;20045;-53
2022/02/01 00:46:34;;;;;;;13.57;2.40;;;6.40;97.50;;;;;;5044842;28;20045;-53
2022/02/01 00:49:01;;;;;;;9.57;1.85;;;6.40;97.10;;;;;;5039454;28;20057;-56
2022/02/01 00:51:28;;;;;;;9.13;2.40;;;6.50;97.10;;;;;;5029855;28;20107;-55
2022/02/01 00:53:55;;;;;;;11.85;2.65;;;6.50;97.00;;;;;;5045983;28;20547;-55
2022/02/01 00:56:22;;;;;;;11.38;2.08;;;6.50;97.20;;;;;;5044473;28;20076;-55
2022/02/01 00:58:49;;;;;;;9.07;2.17;;;6.60;97.30;;;;;;5038954;28;20103;-53
2022/02/01 01:01:15;;;;;;;9.98;1.70;;;6.60;97.30;;;;;;5039150;28;20080;-55
2022/02/01 01:03:44;;;;;;;9.35;1.90;;;6.60;97.20;;;;;;5028167;28;20095;-55
2022/02/01 01:06:11;;;;;;;12.75;3.10;;;6.60;97.60;;;;;;5016497;28;20134;-56
2022/02/01 01:08:40;;;;;;;8.32;1.63;;;6.70;97.60;;;;;;5047309;28;20048;-54
2022/02/01 01:11:08;;;;;;;9.65;2.08;;;6.70;97.30;;;;;;5042440;28;20089;-56
2022/02/01 01:43:47;;;;;;;6.10;1.80;;;6.80;97.80;;;;;;5040689;28;20473;-55
2022/02/01 01:54:14;;;;;;;15.43;1.85;;;6.80;98.60;;;;;;5040365;28;20106;-55
2022/02/01 01:56:41;;;;;;;10.68;2.45;;;6.80;98.80;;;;;;5036021;28;20126;-55
2022/02/01 01:59:08;;;;;;;12.02;1.83;;;6.80;98.50;;;;;;5036584;28;20080;-56
2022/02/01 02:01:35;;;;;;;8.93;2.33;;;6.80;99.10;;;;;;5038468;28;20049;-54
2022/02/01 02:04:03;;;;;;;12.27;3.20;;;6.80;98.60;;;;;;5035424;28;20067;-54
2022/02/01 02:06:33;;;;;;;13.75;2.60;;;6.80;99.10;;;;;;5042299;28;20103;-59
2022/02/01 02:09:01;;;;;;;9.88;3.22;;;6.80;99.70;;;;;;5025791;28;20126;-56
2022/02/01 02:14:24;;;;;;;9.13;1.98;;;6.80;99.70;;;;;;5036223;28;20126;-54
2022/02/01 02:16:58;;;;;;;6.75;2.10;;;6.80;99.40;;;;;;5036811;28;20049;-54
2022/02/01 02:19:29;;;;;;;17.33;2.78;;;6.80;99.90;;;;;;5036652;28;20084;-53
2022/02/01 02:22:06;;;;;;;10.85;2.42;;;6.80;99.60;;;;;;5035692;28;20053;-56
2022/02/01 02:24:42;;;;;;;12.65;2.40;;;6.70;99.90;;;;;;5024816;28;20131;-56
2022/02/01 02:27:09;;;;;;;16.27;4.07;;;6.70;99.90;;;;;;5041275;28;20053;-56
2022/02/01 02:29:36;;;;;;;7.78;2.47;;;6.60;99.90;;;;;;5037877;28;20053;-55
2022/02/01 02:32:04;;;;;;;13.98;2.47;;;6.60;99.90;;;;;;5037246;28;20220;-53
2022/02/01 02:34:32;;;;;;;16.45;4.25;;;6.60;99.90;;;;;;5038248;28;20055;-56
2022/02/01 02:37:13;;;;;;;10.75;2.85;;;6.60;99.90;;;;;;5037951;28;20128;-56
2022/02/01 02:39:58;;;;;;;15.27;2.33;;;6.60;99.90;;;;;;5038794;28;20392;-56
2022/02/01 02:45:03;;;;;;;11.90;2.63;;;6.60;99.90;;;;;;5036464;28;20119;-56
2022/02/01 02:45:15;;;;;;;15.48;5.57;;;6.60;99.90;;;;;;5034504;28;20091;-57
2022/02/01 02:47:42;;;;;;;10.60;2.63;;;6.60;99.90;;;;;;5040888;28;20045;-56
2022/02/01 02:50:09;;;;;;;6.95;2.35;;;6.60;99.90;;;;;;5037377;28;20077;-54
2022/02/01 02:52:37;;;;;;;10.38;2.75;;;6.60;99.90;;;;;;5015636;28;20227;-55
2022/02/01 02:55:04;;;;;;;11.75;2.42;;;6.60;99.90;;;;;;5035232;28;20087;-54
2022/02/01 02:57:31;;;;;;;14.23;2.08;;;6.60;99.90;;;;;;5041821;28;20083;-53
2022/02/01 02:59:58;;;;;;;11.98;2.53;;;6.70;99.90;;;;;;5038445;28;20061;-55
2022/02/01 03:02:25;;;;;;;16.58;3.08;;;6.70;99.90;;;;;;5041664;28;20120;-54
2022/02/01 03:04:52;;;;;;;8.13;2.70;;;6.70;99.90;;;;;;5036896;28;20057;-56
2022/02/01 03:07:18;;;;;;;12.60;3.03;;;6.70;99.90;;;;;;5048838;28;20065;-55
2022/02/01 03:09:45;;;;;;;15.40;2.35;;;6.80;99.90;;;;;;5040678;28;20049;-56
2022/02/01 03:12:17;;;;;;;12.27;2.53;;;6.80;99.90;;;;;;5046655;28;20048;-55
2022/02/01 03:17:25;;;;;;;19.27;3.55;;;6.80;99.90;;;;;;5046975;28;20064;-54
2022/02/01 03:19:55;;;;;;;16.17;3.90;;;6.80;99.90;;;;;;5034675;28;20053;-53
2022/02/01 03:22:23;;;;;;;17.05;3.35;;;6.80;99.90;;;;;;5046490;28;20095;-51
2022/02/01 03:24:52;;;;;;;8.88;3.05;;;6.90;99.90;;;;;;5034242;28;20053;-56
2022/02/01 03:27:19;;;;;;;12.63;3.03;;;6.90;99.90;;;;;;5026135;28;20045;-58
2022/02/01 03:29:47;;;;;;;19.33;3.55;;;6.90;99.90;;;;;;5037481;28;20591;-56
2022/02/01 03:32:14;;;;;;;15.30;3.45;;;6.90;99.90;;;;;;5044895;28;20449;-56
2022/02/01 03:34:41;;;;;;;23.10;4.65;;;6.90;99.90;;;;;;5039107;28;20537;-57
2022/02/01 03:37:08;;;;;;;15.80;4.13;;;7.00;99.90;;;;;;5043629;28;20094;-56
2022/02/01 03:39:35;;;;;;;14.40;3.05;;;7.00;99.90;;;;;;5021804;28;20049;-57
2022/02/01 03:42:02;;;;;;;21.23;4.80;;;7.00;99.90;;;;;;5025731;28;20254;-56
2022/02/01 03:44:31;;;;;;;17.73;3.42;;;7.00;99.90;;;;;;5042315;28;20049;-55
2022/02/01 03:47:01;;;;;;;15.15;3.50;;;7.10;99.90;;;;;;5045872;28;20102;-54
2022/02/01 03:49:36;;;;;;;14.60;3.13;;;7.10;99.90;;;;;;5047088;28;20053;-54
2022/02/01 03:52:04;;;;;;;15.40;3.42;;;7.10;99.90;;;;;;5042657;28;20132;-52
2022/02/01 03:54:31;;;;;;;16.70;3.53;;;7.10;99.90;;;;;;5048792;28;20045;-54
2022/02/01 03:56:58;;;;;;;23.77;4.05;;;7.10;99.90;;;;;;5037020;28;20099;-54
2022/02/01 03:59:25;;;;;;;12.82;3.25;;;7.20;99.90;;;;;;5023410;28;20114;-56
2022/02/01 04:01:56;;;;;;;24.00;4.07;;;7.20;99.90;;;;;;5043378;28;20118;-58
2022/02/01 04:04:27;;;;;;;15.15;3.20;;;7.20;99.90;;;;;;5045910;28;20052;-55
2022/02/01 04:06:54;;;;;;;23.20;5.32;;;7.30;99.90;;;;;;5040581;28;20491;-55
2022/02/01 04:09:22;;;;;;;14.30;2.92;;;7.30;99.90;;;;;;5047723;28;20471;-56
2022/02/01 04:11:53;;;;;;;15.38;3.53;;;7.30;99.90;;;;;;5039170;28;20049;-57
2022/02/01 04:14:23;;;;;;;15.63;3.42;;;7.30;99.90;;;;;;5043380;28;20480;-56
2022/02/01 04:16:50;;;;;;;14.35;3.92;;;7.30;99.90;;;;;;5035398;28;20084;-57
2022/02/01 04:19:17;;;;;;;12.38;3.50;;;7.30;99.90;;;;;;5044806;28;20129;-57
2022/02/01 04:22:02;;;;;;;18.02;4.15;;;7.40;99.90;;;;;;5036958;28;20045;-58
2022/02/01 04:24:33;;;;;;;20.10;3.95;;;7.30;99.90;;;;;;5043893;28;20129;-56
2022/02/01 04:27:02;;;;;;;22.17;4.20;;;7.40;99.90;;;;;;5041067;28;20405;-56
2022/02/01 04:29:29;;;;;;;12.30;3.33;;;7.40;99.90;;;;;;5044803;28;20052;-56
2022/02/01 04:31:56;;;;;;;19.02;3.55;;;7.50;99.90;;;;;;5046166;28;20037;-55
2022/02/01 04:34:23;;;;;;;23.50;4.80;;;7.60;99.90;;;;;;5043589;28;20041;-55
2022/02/01 04:36:50;;;;;;;18.30;3.85;;;7.50;99.90;;;;;;5040772;28;20120;-56
2022/02/01 04:39:16;;;;;;;12.00;3.40;;;7.50;99.90;;;;;;5020131;28;20115;-57
2022/02/01 04:41:43;;;;;;;13.27;4.43;;;7.50;99.90;;;;;;5046016;28;20087;-55
2022/02/01 04:44:10;;;;;;;17.98;4.07;;;7.60;99.90;;;;;;5037470;28;20072;-56
2022/02/01 04:46:37;;;;;;;21.98;5.28;;;7.60;99.90;;;;;;5037880;28;20495;-56
2022/02/01 04:49:08;;;;;;;32.17;4.88;;;7.60;99.90;;;;;;5038658;28;20057;-56
2022/02/01 04:51:35;;;;;;;15.88;3.83;;;7.60;99.90;;;;;;5039089;28;20045;-56
2022/02/01 04:54:02;;;;;;;22.23;4.15;;;7.60;99.90;;;;;;5036008;28;20044;-57
2022/02/01 04:56:29;;;;;;;20.80;6.20;;;7.60;99.90;;;;;;5039027;28;20103;-54
2022/02/01 04:58:56;;;;;;;15.65;3.55;;;7.60;99.90;;;;;;5038429;28;20515;-56
2022/02/01 05:01:32;;;;;;;24.33;3.95;;;7.60;99.90;;;;;;5039216;28;20045;-56
2022/02/01 05:03:59;;;;;;;19.25;4.00;;;7.60;99.90;;;;;;5039402;28;20076;-55
2022/02/01 05:06:28;;;;;;;31.20;5.05;;;7.60;99.90;;;;;;5045774;28;20487;-55
2022/02/01 05:08:55;;;;;;;25.10;4.47;;;7.60;99.90;;;;;;5034862;28;20143;-54
2022/02/01 05:11:23;;;;;;;17.77;3.58;;;7.60;99.90;;;;;;5021524;28;20069;-52
2022/02/01 05:14:12;;;;;;;18.23;4.20;;;7.60;99.90;;;;;;5035765;28;20100;-52
2022/02/01 05:19:12;;;;;;;12.55;3.65;;;7.70;99.90;;;;;;5037184;28;20046;-55
2022/02/01 05:21:40;;;;;;;30.25;4.55;;;7.70;99.90;;;;;;5019464;28;20099;-52
2022/02/01 05:24:12;;;;;;;19.30;3.25;;;7.70;99.90;;;;;;5020315;28;20053;-52
2022/02/01 05:26:39;;;;;;;10.30;4.03;;;7.70;99.90;;;;;;5044027;28;20306;-51
2022/02/01 05:29:06;;;;;;;13.35;4.03;;;7.70;99.90;;;;;;5033445;28;20045;-55
2022/02/01 05:31:33;;;;;;;20.75;4.18;;;7.70;99.90;;;;;;5043536;28;20045;-57
2022/02/01 05:34:00;;;;;;;22.35;3.67;;;7.70;99.90;;;;;;5038542;28;20071;-57
2022/02/01 05:36:26;;;;;;;15.25;4.30;;;7.70;99.90;;;;;;5039664;28;20064;-55
2022/02/01 05:38:53;;;;;;;18.13;3.53;;;7.70;99.90;;;;;;5036205;28;20073;-55
2022/02/01 05:41:23;;;;;;;28.83;4.10;;;7.80;99.90;;;;;;5040755;28;20560;-55
2022/02/01 05:43:50;;;;;;;22.25;3.53;;;7.80;99.90;;;;;;5044434;28;20456;-56
2022/02/01 05:46:17;;;;;;;19.70;4.20;;;7.80;99.90;;;;;;5040739;28;20128;-55
2022/02/01 05:48:44;;;;;;;17.98;4.40;;;7.80;99.90;;;;;;5036468;28;20049;-56
2022/02/01 05:51:11;;;;;;;12.77;2.90;;;7.80;99.90;;;;;;5023527;28;20049;-53
2022/02/01 05:53:38;;;;;;;20.83;4.13;;;7.80;99.90;;;;;;5004155;28;20073;-55
2022/02/01 05:56:05;;;;;;;25.52;4.03;;;7.80;99.90;;;;;;5020388;28;20523;-57
2022/02/01 05:58:31;;;;;;;15.82;3.85;;;7.80;99.90;;;;;;5035660;28;20052;-54
2022/02/01 06:00:58;;;;;;;16.67;3.42;;;7.80;99.90;;;;;;5038720;28;20465;-55
2022/02/01 06:03:25;;;;;;;19.27;3.25;;;7.80;99.90;;;;;;5034215;28;20120;-54
2022/02/01 06:05:52;;;;;;;18.63;3.95;;;7.90;99.90;;;;;;5032510;28;20091;-53
2022/02/01 06:08:19;;;;;;;11.65;3.13;;;7.90;99.90;;;;;;5035298;28;20111;-51
2022/02/01 06:10:46;;;;;;;24.42;3.30;;;7.90;99.90;;;;;;5036866;28;20127;-54
2022/02/01 06:13:13;;;;;;;18.10;3.50;;;7.90;99.90;;;;;;5029686;28;20053;-55
2022/02/01 06:15:39;;;;;;;19.15;4.95;;;7.90;99.90;;;;;;5031222;28;20080;-56
2022/02/01 06:18:06;;;;;;;19.45;3.28;;;7.90;99.90;;;;;;5023517;28;20049;-55
2022/02/01 06:20:33;;;;;;;23.25;3.58;;;7.90;99.90;;;;;;5041509;28;20083;-55
2022/02/01 06:23:01;;;;;;;20.33;3.33;;;7.90;99.90;;;;;;5034246;28;20045;-56
2022/02/01 06:25:48;;;;;;;19.63;3.05;;;7.90;99.90;;;;;;5030755;28;20044;-56
2022/02/01 06:28:22;;;;;;;12.20;2.60;;;8.00;99.90;;;;;;5033090;28;20076;-56
2022/02/01 06:30:49;;;;;;;23.88;2.85;;;8.00;99.90;;;;;;5033458;28;20130;-54
2022/02/01 06:33:17;;;;;;;12.18;3.10;;;8.00;99.90;;;;;;5044598;28;20041;-53
2022/02/01 06:35:44;;;;;;;12.50;3.63;;;8.00;99.90;;;;;;5024302;28;20166;-54
2022/02/01 06:38:11;;;;;;;18.30;3.85;;;8.10;99.90;;;;;;5036215;28;20052;-55
2022/02/01 06:40:38;;;;;;;17.48;5.90;;;8.10;99.90;;;;;;5036007;28;20099;-55
2022/02/01 06:43:05;;;;;;;10.88;2.83;;;8.10;99.90;;;;;;4672575;28;10000229;-57
2022/02/01 06:45:33;;;;;;;14.35;2.60;;;8.20;99.90;;;;;;5030493;28;20132;-57
2022/02/01 06:48:01;;;;;;;21.70;4.05;;;8.10;99.90;;;;;;5033007;28;20087;-58
2022/02/01 06:50:28;;;;;;;21.48;3.38;;;8.20;99.90;;;;;;5014373;28;20084;-57
2022/02/01 06:52:57;;;;;;;12.60;3.72;;;8.20;99.90;;;;;;5033546;28;20131;-56
2022/02/01 06:55:58;;;;;;;13.63;4.15;;;8.20;99.90;;;;;;5035343;28;20050;-56
2022/02/01 06:58:13;;;;;;;16.73;3.03;;;8.20;99.90;;;;;;5029250;28;20145;-56
2022/02/01 07:00:40;;;;;;;17.55;3.30;;;8.30;99.90;;;;;;5005316;28;20130;-59
2022/02/01 07:03:07;;;;;;;15.70;3.78;;;8.20;99.90;;;;;;5028898;28;20114;-56
2022/02/01 07:05:35;;;;;;;22.67;3.10;;;8.30;99.90;;;;;;5014586;28;20084;-60
2022/02/01 07:08:02;;;;;;;12.43;2.72;;;8.30;99.90;;;;;;5024586;28;20077;-58
2022/02/01 07:10:29;;;;;;;13.20;2.38;;;8.30;99.90;;;;;;5024541;28;20114;-56
2022/02/01 07:12:55;;;;;;;12.80;2.92;;;8.30;99.90;;;;;;5029808;28;20148;-57
2022/02/01 07:15:22;;;;;;;17.63;2.92;;;8.30;99.90;;;;;;5032264;28;20140;-59
2022/02/01 07:17:53;;;;;;;13.13;3.22;;;8.30;99.90;;;;;;5028756;28;20138;-58
2022/02/01 07:20:20;;;;;;;11.60;2.30;;;8.30;99.90;;;;;;5038856;28;20053;-56
2022/02/01 07:22:48;;;;;;;17.55;4.28;;;8.30;99.90;;;;;;5031922;28;20165;-57
2022/02/01 07:25:23;;;;;;;15.00;2.58;;;8.30;99.90;;;;;;5030174;28;20574;-59
2022/02/01 07:27:51;;;;;;;7.88;2.05;;;8.30;99.90;;;;;;5036213;28;20462;-56
2022/02/01 07:30:19;;;;;;;13.02;2.72;;;8.30;99.90;;;;;;5029652;28;20143;-57
2022/02/01 07:32:46;;;;;;;16.02;2.97;;;8.20;99.90;;;;;;5032327;28;20511;-57
2022/02/01 07:35:13;;;;;;;19.40;2.60;;;8.30;99.90;;;;;;5012516;28;20409;-55
2022/02/01 07:37:43;;;;;;;10.73;1.90;;;8.20;99.90;;;;;;5026575;28;20186;-57
2022/02/01 07:40:10;;;;;;;19.08;3.78;;;8.20;99.90;;;;;;5035072;28;20450;-58
2022/02/01 07:42:37;;;;;;;10.68;2.15;;;8.20;99.90;;;;;;5023157;28;20044;-59
2022/02/01 07:45:05;;;;;;;14.00;2.63;;;8.20;99.90;;;;;;5031999;28;20057;-56
2022/02/01 07:47:32;;;;;;;14.13;2.17;;;8.20;99.90;;;;;;5036172;28;20083;-57
2022/02/01 07:49:59;;;;;;;10.07;1.88;;;8.30;99.90;;;;;;5042502;28;20045;-57
2022/02/01 07:52:26;;;;;;;11.15;2.40;;;8.30;99.90;;;;;;5043928;28;20115;-55
2022/02/01 07:54:53;;;;;;;18.08;2.65;;;8.30;99.90;;;;;;5016742;28;20060;-56
2022/02/01 07:57:19;;;;;;;10.85;2.63;;;8.30;99.90;;;;;;5038749;28;20098;-56
2022/02/01 07:59:46;;;;;;;12.70;2.78;;;8.40;99.90;;;;;;5037096;28;20095;-55
2022/02/01 08:02:20;;;;;;;12.88;2.92;;;8.40;99.90;;;;;;5036894;28;20050;-53
2022/02/01 08:05:07;;;;;;;17.30;3.85;;;8.50;99.90;;;;;;5032679;28;20373;-56
2022/02/01 08:07:34;;;;;;;9.38;1.88;;;8.50;99.90;;;;;;5033366;28;20108;-54
2022/02/01 08:10:03;;;;;;;9.63;3.17;;;8.50;99.90;;;;;;5037552;28;20056;-56
2022/02/01 08:20:35;;;;;;;10.48;2.70;;;8.70;99.90;;;;;;5036486;28;20049;-57
2022/02/01 08:23:06;;;;;;;7.03;2.55;;;8.70;99.90;;;;;;5036641;28;20042;-57
2022/02/01 08:25:33;;;;;;;12.23;2.22;;;8.70;99.90;;;;;;5039802;28;20559;-57
2022/02/01 08:28:04;;;;;;;11.63;2.20;;;8.70;99.90;;;;;;5044084;28;20080;-56
2022/02/01 08:30:31;;;;;;;7.07;1.90;;;8.80;99.90;;;;;;5033062;28;20091;-58
2022/02/01 08:32:58;;;;;;;13.60;2.28;;;8.80;99.90;;;;;;5013044;28;20092;-57
2022/02/01 08:35:25;;;;;;;13.63;1.83;;;8.80;99.90;;;;;;5036983;28;20531;-56
2022/02/01 08:38:12;;;;;;;6.10;1.60;;;8.80;99.90;;;;;;5031757;28;20866;-57
2022/02/01 08:40:46;;;;;;;6.68;1.30;;;8.90;99.90;;;;;;5037384;28;20053;-58
2022/02/01 08:43:14;;;;;;;6.65;1.88;;;8.90;99.90;;;;;;5036878;28;20047;-58
2022/02/01 08:45:43;;;;;;;11.13;2.80;;;8.90;99.90;;;;;;5011232;28;20079;-54
2022/02/01 08:48:10;;;;;;;19.75;3.55;;;9.00;99.90;;;;;;5040199;28;20084;-55
2022/02/01 08:50:37;;;;;;;10.57;1.98;;;9.00;99.90;;;;;;5031995;28;20501;-56
2022/02/01 08:53:22;;;;;;;9.13;2.58;;;9.00;99.90;;;;;;5021641;28;20049;-56
2022/02/01 08:58:22;;;;;;;11.48;1.88;;;9.00;99.90;;;;;;5024268;28;20506;-56
2022/02/01 09:00:49;;;;;;;11.70;1.85;;;9.00;99.90;;;;;;5034742;28;20061;-55
2022/02/01 09:03:16;;;;;;;7.03;2.10;;;9.10;99.90;;;;;;5021818;28;20041;-57
2022/02/01 09:05:48;;;;;;;6.38;2.03;;;9.20;99.90;;;;;;5039384;28;20047;-56
2022/02/01 09:08:15;;;;;;;8.40;2.47;;;9.10;99.90;;;;;;5044171;28;20048;-57
2022/02/01 09:10:42;;;;;;;9.45;2.25;;;9.10;99.90;;;;;;5042569;28;20516;-57
2022/02/01 09:13:09;;;;;;;10.60;2.33;;;9.20;99.90;;;;;;5018499;28;20620;-56
2022/02/01 09:15:35;;;;;;;4.78;1.92;;;9.20;99.90;;;;;;5041801;28;20073;-56
2022/02/01 09:18:02;;;;;;;12.25;2.65;;;9.20;99.90;;;;;;5033245;28;20080;-55
2022/02/01 09:20:29;;;;;;;9.40;2.13;;;9.30;99.90;;;;;;5035757;28;20106;-56
2022/02/01 09:22:59;;;;;;;7.45;1.77;;;9.30;99.90;;;;;;5034229;28;20040;-57
2022/02/01 09:25:26;;;;;;;8.35;1.73;;;9.40;99.90;;;;;;5025111;28;20053;-58
2022/02/01 09:27:53;;;;;;;9.60;2.22;;;9.40;99.90;;;;;;5034741;28;20045;-56
2022/02/01 09:30:22;;;;;;;6.22;2.08;;;9.40;99.90;;;;;;5034828;28;20055;-56
2022/02/01 09:32:50;;;;;;;10.35;2.40;;;9.40;99.90;;;;;;5028983;28;20045;-56
2022/02/01 09:35:17;;;;;;;4.72;1.92;;;9.40;99.90;;;;;;5043897;28;20076;-56
2022/02/01 09:37:44;;;;;;;8.18;1.98;;;9.40;99.90;;;;;;5029423;28;20060;-57
2022/02/01 09:40:31;;;;;;;9.20;1.80;;;9.50;99.90;;;;;;5032301;28;20072;-55
2022/02/01 09:42:58;;;;;;;10.57;2.50;;;9.50;99.90;;;;;;5042499;28;20102;-59
2022/02/01 09:45:27;;;;;;;6.07;1.67;;;9.60;99.90;;;;;;5016976;28;20095;-55
2022/02/01 09:48:03;;;;;;;3.97;1.58;;;9.60;99.90;;;;;;5033120;28;20620;-57
2022/02/01 09:50:30;;;;;;;6.13;1.80;;;9.70;99.90;;;;;;5036681;28;20111;-58
2022/02/01 09:52:57;;;;;;;5.20;1.60;;;9.80;99.90;;;;;;5030940;28;20099;-55
2022/02/01 09:55:24;;;;;;;11.93;3.05;;;9.80;99.90;;;;;;5036158;28;20091;-57
2022/02/01 09:57:52;;;;;;;4.40;1.42;;;9.90;99.90;;;;;;5036568;28;20080;-57
2022/02/01 10:00:21;;;;;;;8.02;1.73;;;9.90;99.90;;;;;;5032415;28;20065;-56
2022/02/01 10:03:16;;;;;;;6.20;1.55;;;10.00;99.90;;;;;;5030794;28;20523;-55
2022/02/01 10:05:45;;;;;;;3.60;1.38;;;10.10;99.90;;;;;;5036877;28;20053;-56
2022/02/01 10:08:13;;;;;;;6.57;1.77;;;10.10;99.90;;;;;;5009868;28;20072;-55
2022/02/01 10:10:40;;;;;;;3.65;1.27;;;10.20;99.90;;;;;;5034818;28;20084;-55
2022/02/01 10:13:16;;;;;;;3.65;2.22;;;10.20;99.90;;;;;;5032010;28;20118;-56
2022/02/01 10:16:00;;;;;;;6.93;1.77;;;10.30;99.90;;;;;;5018792;28;20539;-55
2022/02/01 10:18:32;;;;;;;6.55;1.88;;;10.30;99.90;;;;;;4688223;28;10000352;-54
2022/02/01 10:21:12;;;;;;;5.05;1.20;;;10.40;99.90;;;;;;5034500;28;20531;-57
2022/02/01 10:23:40;;;;;;;5.65;1.48;;;10.40;99.90;;;;;;5029926;28;20090;-55
2022/02/01 10:26:11;;;;;;;4.65;1.63;;;10.50;99.90;;;;;;5035490;28;20049;-57
2022/02/01 10:29:00;;;;;;;4.68;1.58;;;10.50;99.90;;;;;;5032009;28;20483;-57
2022/02/01 10:31:52;;;;;;;5.05;1.13;;;10.50;99.90;;;;;;5036882;28;20049;-56
2022/02/01 10:37:15;;;;;;;6.38;1.30;;;10.60;99.90;;;;;;5026081;28;20069;-56
2022/02/01 10:39:42;;;;;;;3.63;1.40;;;10.70;99.90;;;;;;5016603;28;20044;-54
2022/02/01 10:42:12;;;;;;;6.55;1.67;;;10.80;99.90;;;;;;5033945;28;20146;-56
2022/02/01 10:44:43;;;;;;;3.35;1.20;;;10.80;99.90;;;;;;5030493;28;20733;-56
2022/02/01 10:47:14;;;;;;;4.85;1.58;;;10.90;99.90;;;;;;5010557;28;20548;-57
2022/02/01 10:50:08;;;;;;;4.63;1.55;;;10.90;99.90;;;;;;5027931;28;20061;-57
2022/02/01 10:52:36;;;;;;;4.88;1.42;;;11.00;99.90;;;;;;5040371;28;20063;-58
2022/02/01 10:55:05;;;;;;;5.25;1.60;;;11.10;99.80;;;;;;5020930;28;20542;-55
2022/02/01 10:57:32;;;;;;;7.85;2.30;;;11.10;99.70;;;;;;5029996;28;20100;-57
2022/02/01 10:59:59;;;;;;;3.75;1.63;;;11.30;99.60;;;;;;5031453;28;20152;-56
2022/02/01 11:02:26;;;;;;;3.80;1.42;;;11.30;99.40;;;;;;5024262;28;20072;-56
2022/02/01 11:04:54;;;;;;;4.40;2.03;;;11.50;99.30;;;;;;5011884;28;20053;-56
2022/02/01 11:07:21;;;;;;;3.40;0.93;;;11.50;99.10;;;;;;5040576;28;20057;-55
2022/02/01 11:09:48;;;;;;;8.23;1.58;;;11.60;98.80;;;;;;5038787;28;20573;-56
2022/02/01 11:12:15;;;;;;;5.72;1.73;;;11.70;98.70;;;;;;5040209;28;20519;-57
2022/02/01 11:14:47;;;;;;;6.53;1.25;;;11.80;98.80;;;;;;5040191;28;20044;-57
2022/02/01 11:17:18;;;;;;;3.25;1.13;;;11.90;98.00;;;;;;5041905;28;20130;-58
2022/02/01 11:19:45;;;;;;;2.63;1.20;;;12.00;97.80;;;;;;5045268;28;20045;-57
2022/02/01 11:22:27;;;;;;;7.25;1.40;;;12.00;97.70;;;;;;5030203;28;20049;-57
2022/02/01 11:25:25;;;;;;;2.13;0.82;;;12.10;97.80;;;;;;5023023;28;20044;-56
2022/02/01 11:28:31;;;;;;;3.90;0.90;;;12.10;97.70;;;;;;5039144;28;20045;-59
2022/02/01 11:30:55;;;;;;;4.63;1.23;;;12.10;97.00;;;;;;5037465;28;20050;-57
2022/02/01 11:33:21;;;;;;;2.33;1.05;;;12.20;96.90;;;;;;5032505;28;20060;-59
2022/02/01 11:35:58;;;;;;;4.35;1.20;;;12.20;96.70;;;;;;5039153;28;21057;-56
2022/02/01 11:38:25;;;;;;;4.43;1.02;;;12.30;96.30;;;;;;5020162;28;20063;-56
2022/02/01 11:41:04;;;;;;;11.70;1.75;;;12.30;96.40;;;;;;5017167;28;20103;-58
2022/02/01 11:43:37;;;;;;;2.85;1.15;;;12.40;96.80;;;;;;5042435;28;20172;-56
2022/02/01 11:46:07;;;;;;;6.53;1.63;;;12.40;96.00;;;;;;5035541;28;20053;-56
2022/02/01 11:48:47;;;;;;;2.10;1.10;;;12.50;95.70;;;;;;5041480;28;20566;-57
2022/02/01 11:51:16;;;;;;;1.17;1.00;;;12.50;95.50;;;;;;5024221;28;20103;-55
2022/02/01 11:53:44;;;;;;;3.90;0.93;;;12.50;95.20;;;;;;5039534;28;20045;-57
2022/02/01 11:56:12;;;;;;;9.75;0.93;;;12.60;95.70;;;;;;5019851;28;20326;-57
2022/02/01 11:58:46;;;;;;;5.35;0.85;;;12.60;94.60;;;;;;5032271;28;20049;-56
2022/02/01 12:01:36;;;;;;;3.15;1.15;;;12.70;94.70;;;;;;5034211;28;20049;-57
2022/02/01 12:04:04;;;;;;;2.13;0.90;;;12.70;94.40;;;;;;5035915;28;20071;-55
2022/02/01 12:06:58;;;;;;;4.28;0.95;;;12.80;94.60;;;;;;5042332;28;20040;-57
2022/02/01 12:09:26;;;;;;;5.00;0.90;;;12.90;94.10;;;;;;5031334;28;20455;-57
2022/02/01 12:11:54;;;;;;;2.47;1.35;;;13.00;94.00;;;;;;5007308;28;20494;-58
2022/02/01 12:14:21;;;;;;;2.60;0.98;;;12.90;94.00;;;;;;5022539;28;20076;-55
2022/02/01 12:16:49;;;;;;;1.60;0.90;;;12.90;94.10;;;;;;5042264;28;20072;-57
2022/02/01 12:19:20;;;;;;;3.70;1.17;;;12.90;93.80;;;;;;5037616;28;20049;-57
2022/02/01 12:21:57;;;;;;;4.22;1.05;;;12.90;94.20;;;;;;5016767;28;20053;-58
2022/02/01 12:24:25;;;;;;;2.90;1.20;;;12.90;94.10;;;;;;5035605;28;20045;-61
2022/02/01 12:26:52;;;;;;;23.35;4.07;;;12.90;94.50;;;;;;5035690;28;20049;-61
2022/02/01 12:29:18;;;;;;;2.45;1.10;;;13.00;94.60;;;;;;5036938;28;20107;-55
2022/02/01 12:31:47;;;;;;;4.22;1.02;;;13.00;94.00;;;;;;5039061;28;20049;-58
2022/02/01 12:34:15;;;;;;;4.63;1.30;;;13.00;94.20;;;;;;5039101;28;20081;-58
2022/02/01 12:36:49;;;;;;;4.03;1.05;;;13.10;94.30;;;;;;5016183;28;20077;-55
2022/02/01 12:39:33;;;;;;;;;;;13.20;93.90;;;;;;5010593;28;20099;-56
2022/02/01 12:42:14;;;;;;;5.93;1.70;;;13.20;93.60;;;;;;5045073;28;19924;-57
2022/02/01 12:47:20;;;;;;;5.57;1.10;;;13.20;93.80;;;;;;5044751;28;20045;-58
2022/02/01 12:50:11;;;;;;;6.43;1.35;;;13.20;93.70;;;;;;5042143;28;20633;-55
2022/02/01 12:52:38;;;;;;;20.83;2.22;;;13.30;93.70;;;;;;5010290;28;20057;-56
2022/02/01 12:55:06;;;;;;;5.15;1.23;;;13.30;93.60;;;;;;5041526;28;20132;-57
2022/02/01 12:57:52;;;;;;;7.65;1.58;;;13.30;93.90;;;;;;5034721;28;20129;-58
2022/02/01 13:00:21;;;;;;;4.13;1.88;;;13.30;93.60;;;;;;5034051;28;20064;-57
2022/02/01 13:02:48;;;;;;;3.38;0.93;;;13.30;93.30;;;;;;5018978;28;20075;-57
2022/02/01 13:05:17;;;;;;;3.30;1.20;;;13.40;92.90;;;;;;5038298;28;20481;-58
2022/02/01 13:21:05;;;;;;;5.75;0.88;;;13.40;92.80;;;;;;5028009;28;20112;-58
2022/02/01 13:23:42;;;;;;;19.50;4.25;;;13.40;92.40;;;;;;5035325;28;20084;-57
2022/02/01 13:26:13;;;;;;;5.13;1.27;;;13.50;92.40;;;;;;5013870;28;20527;-58
2022/02/01 13:29:06;;;;;;;7.18;1.25;;;13.60;92.00;;;;;;5028915;28;20561;-58
2022/02/01 13:31:54;;;;;;;11.85;2.30;;;13.60;92.00;;;;;;5036609;28;20142;-58
2022/02/01 13:34:30;;;;;;;9.85;1.50;;;13.70;92.40;;;;;;5038687;28;20056;-57
2022/02/01 13:36:58;;;;;;;11.00;2.25;;;13.70;92.10;;;;;;5032997;28;20060;-58
2022/02/01 13:39:37;;;;;;;7.05;1.25;;;13.70;92.40;;;;;;5038880;28;20184;-55
2022/02/01 13:42:09;;;;;;;8.00;1.50;;;13.70;91.90;;;;;;5032616;28;20561;-55
2022/02/01 13:44:56;;;;;;;4.55;1.15;;;13.80;92.00;;;;;;5038034;28;20563;-55
2022/02/01 13:47:40;;;;;;;19.70;2.45;;;13.80;92.00;;;;;;5033478;28;20127;-53
2022/02/01 13:50:19;;;;;;;5.50;1.30;;;13.90;92.00;;;;;;5039611;28;20440;-55
2022/02/01 13:53:01;;;;;;;10.65;1.63;;;13.80;91.30;;;;;;5016723;28;20045;-60
2022/02/01 13:55:31;;;;;;;4.30;1.05;;;13.80;91.80;;;;;;5039608;28;21491;-54
2022/02/01 13:58:09;;;;;;;7.20;1.60;;;13.70;91.80;;;;;;5035437;28;20545;-58
2022/02/01 14:00:44;;;;;;;11.88;1.33;;;13.70;92.10;;;;;;5039146;28;20076;-57
2022/02/01 14:06:08;;;;;;;17.80;3.17;;;13.80;92.50;;;;;;5032014;28;20106;-54
2022/02/01 14:09:34;;;;;;;2.80;1.00;;;14.00;92.50;;;;;;5036876;28;20048;-57
2022/02/01 14:11:43;;;;;;;3.03;1.17;;;14.00;92.30;;;;;;5022679;28;20570;-58
2022/02/01 14:22:31;;;;;;;6.78;1.90;;;13.70;93.00;;;;;;5033300;28;20093;-59
2022/02/01 14:25:39;;;;;;;1.08;0.70;;;13.70;93.00;;;;;;5041332;28;20052;-58
2022/02/01 14:33:59;;;;;;;7.18;1.27;;;13.80;93.40;;;;;;4986281;28;20045;-56
2022/02/01 14:36:31;;;;;;;3.58;1.48;;;13.80;93.70;;;;;;5033172;28;20162;-57
2022/02/01 14:39:07;;;;;;;3.28;0.93;;;13.80;93.30;;;;;;5038104;28;20168;-55
2022/02/01 14:46:53;;;;;;;5.05;1.33;;;13.80;93.30;;;;;;5022609;28;20448;-58
2022/02/01 14:49:24;;;;;;;6.88;2.03;;;13.80;93.50;;;;;;5042190;28;20076;-56
2022/02/01 14:51:53;;;;;;;3.58;1.27;;;13.80;93.40;;;;;;5016428;28;20115;-55
2022/02/01 14:54:31;;;;;;;5.43;1.30;;;13.70;93.40;;;;;;5031474;28;20212;-57
2022/02/01 15:03:43;;;;;;;4.10;1.20;;;13.80;93.40;;;;;;5040693;28;20052;-57
2022/02/01 15:11:20;;;;;;;5.45;1.30;;;13.80;93.60;;;;;;5032977;28;20392;-56